createdAt,value
2023-01-09T00:01:40.313Z,97.00
2023-01-09T00:04:09.686Z,96.80
2023-01-09T00:06:40.233Z,96.80
2023-01-09T00:09:08.559Z,96.80
2023-01-09T00:11:36.871Z,96.70
2023-01-09T00:14:06.823Z,96.70
2023-01-09T00:16:35.210Z,96.60
2023-01-09T00:19:03.515Z,96.50
2023-01-09T00:21:31.779Z,96.50
2023-01-09T00:24:00.344Z,96.50
2023-01-09T00:26:28.636Z,96.40
2023-01-09T00:28:56.988Z,96.30
2023-01-09T00:31:26.711Z,96.30
2023-01-09T00:33:59.377Z,96.20
2023-01-09T00:36:28.057Z,96.10
2023-01-09T00:38:56.565Z,96.00
2023-01-09T00:41:29.794Z,96.00
2023-01-09T00:44:04.369Z,96.30
2023-01-09T00:46:44.383Z,95.90
2023-01-09T00:49:14.787Z,95.80
2023-01-09T00:51:43.704Z,95.80
2023-01-09T00:54:15.230Z,95.70
2023-01-09T00:56:43.720Z,95.70
2023-01-09T00:59:12.021Z,95.60
2023-01-09T01:01:41.880Z,95.60
2023-01-09T01:04:24.096Z,95.50
2023-01-09T01:07:09.810Z,95.40
2023-01-09T01:09:38.114Z,95.30
2023-01-09T01:12:07.463Z,95.30
2023-01-09T01:14:36.045Z,95.30
2023-01-09T01:17:06.441Z,95.30
2023-01-09T01:19:35.535Z,95.30
2023-01-09T01:22:04.599Z,95.30
2023-01-09T01:24:33.084Z,95.30
2023-01-09T01:27:01.385Z,95.20
2023-01-09T01:29:29.831Z,95.20
2023-01-09T01:31:58.158Z,95.10
2023-01-09T01:34:29.280Z,95.00
2023-01-09T01:36:57.606Z,95.00
2023-01-09T01:39:25.889Z,94.80
2023-01-09T01:41:54.207Z,94.80
2023-01-09T01:44:52.244Z,94.70
2023-01-09T01:47:22.148Z,94.90
2023-01-09T01:49:53.193Z,94.80
2023-01-09T01:52:22.118Z,94.70
2023-01-09T01:54:50.954Z,94.70
2023-01-09T01:57:19.385Z,94.70
2023-01-09T01:59:51.281Z,94.70
2023-01-09T02:02:22.303Z,94.70
2023-01-09T02:04:54.633Z,94.70
2023-01-09T02:07:23.007Z,94.70
2023-01-09T02:09:52.095Z,94.70
2023-01-09T02:12:23.820Z,94.70
2023-01-09T02:14:55.329Z,94.70
2023-01-09T02:18:10.690Z,94.70
2023-01-09T02:20:45.614Z,94.70
2023-01-09T02:23:55.647Z,94.70
2023-01-09T02:26:53.098Z,94.70
2023-01-09T02:29:47.602Z,94.70
2023-01-09T02:32:33.557Z,94.70
2023-01-09T02:35:15.140Z,95.00
2023-01-09T02:37:51.999Z,94.70
2023-01-09T02:40:26.086Z,94.70
2023-01-09T02:42:56.112Z,94.60
2023-01-09T02:45:24.572Z,94.80
2023-01-09T02:47:54.587Z,94.70
2023-01-09T02:50:25.729Z,94.70
2023-01-09T02:53:20.695Z,94.60
2023-01-09T02:55:59.753Z,94.50
2023-01-09T02:58:45.526Z,94.40
2023-01-09T03:01:26.481Z,94.30
2023-01-09T03:04:02.858Z,94.20
2023-01-09T03:06:38.270Z,94.20
2023-01-09T03:09:09.752Z,94.20
2023-01-09T03:11:42.991Z,94.20
2023-01-09T03:14:16.740Z,94.20
2023-01-09T03:16:48.375Z,94.20
2023-01-09T03:19:21.920Z,94.20
2023-01-09T03:21:51.385Z,94.20
2023-01-09T03:24:19.636Z,94.20
2023-01-09T03:26:48.112Z,94.20
2023-01-09T03:29:16.446Z,94.10
2023-01-09T03:31:44.831Z,94.10
2023-01-09T03:34:13.160Z,94.20
2023-01-09T03:36:42.871Z,94.20
2023-01-09T03:39:11.294Z,94.20
2023-01-09T03:41:39.644Z,94.20
2023-01-09T03:44:07.945Z,94.30
2023-01-09T03:46:36.285Z,94.30
2023-01-09T03:49:04.534Z,94.40
2023-01-09T03:51:32.745Z,94.40
2023-01-09T03:54:02.384Z,94.50
2023-01-09T03:56:33.640Z,94.50
2023-01-09T03:59:01.986Z,94.50
2023-01-09T04:01:30.289Z,94.50
2023-01-09T04:03:58.653Z,94.50
2023-01-09T04:06:26.993Z,94.50
2023-01-09T04:08:55.286Z,94.60
2023-01-09T04:11:24.978Z,94.60
2023-01-09T04:13:53.277Z,94.70
2023-01-09T04:16:21.619Z,94.70
2023-01-09T04:18:49.919Z,94.90
2023-01-09T04:21:18.304Z,94.90
2023-01-09T04:23:47.823Z,94.90
2023-01-09T04:26:16.112Z,94.90
2023-01-09T04:28:45.811Z,94.80
2023-01-09T04:31:14.248Z,94.80
2023-01-09T04:33:42.630Z,94.90
2023-01-09T04:36:11.412Z,94.80
2023-01-09T04:38:39.798Z,94.90
2023-01-09T04:41:08.102Z,95.00
2023-01-09T04:43:38.792Z,95.00
2023-01-09T04:46:08.570Z,95.00
2023-01-09T04:48:37.022Z,95.10
2023-01-09T04:51:05.434Z,95.10
2023-01-09T04:53:33.735Z,95.10
2023-01-09T04:56:02.374Z,95.10
2023-01-09T04:58:30.683Z,95.10
2023-01-09T05:00:59.018Z,95.30
2023-01-09T05:03:31.493Z,95.20
2023-01-09T05:05:59.818Z,95.20
2023-01-09T05:08:28.160Z,95.20
2023-01-09T05:10:56.505Z,95.20
2023-01-09T05:13:24.908Z,95.30
2023-01-09T05:15:53.227Z,95.30
2023-01-09T05:18:22.937Z,95.30
2023-01-09T05:20:52.761Z,95.20
2023-01-09T05:23:21.050Z,95.20
2023-01-09T05:25:49.316Z,95.10
2023-01-09T05:28:17.704Z,95.20
2023-01-09T05:30:46.028Z,95.20
2023-01-09T05:33:14.380Z,95.20
2023-01-09T05:35:45.840Z,95.30
2023-01-09T05:38:15.570Z,95.10
2023-01-09T05:40:45.244Z,95.00
2023-01-09T05:43:14.583Z,95.00
2023-01-09T05:45:42.906Z,95.00
2023-01-09T05:48:11.425Z,95.00
2023-01-09T05:50:39.722Z,95.00
2023-01-09T05:53:08.002Z,94.90
2023-01-09T05:55:37.657Z,94.90
2023-01-09T05:58:06.007Z,94.90
2023-01-09T06:00:34.337Z,94.90
2023-01-09T06:03:02.683Z,95.10
2023-01-09T06:05:30.951Z,95.20
2023-01-09T06:07:59.218Z,95.10
2023-01-09T06:10:27.496Z,95.10
2023-01-09T06:12:57.195Z,95.10
2023-01-09T06:15:25.476Z,95.10
2023-01-09T06:17:53.735Z,95.50
2023-01-09T06:20:26.507Z,95.20
2023-01-09T06:22:54.824Z,95.20
2023-01-09T06:25:23.332Z,95.20
2023-01-09T06:27:52.266Z,95.30
2023-01-09T06:30:22.160Z,95.30
2023-01-09T06:32:50.792Z,95.40
2023-01-09T06:35:20.963Z,95.50
2023-01-09T06:37:49.798Z,95.40
2023-01-09T06:40:18.712Z,95.40
2023-01-09T06:42:47.237Z,95.40
2023-01-09T06:45:15.822Z,95.30
2023-01-09T06:47:45.655Z,95.30
2023-01-09T06:50:14.112Z,95.30
2023-01-09T06:52:42.358Z,95.60
2023-01-09T06:55:11.140Z,95.20
2023-01-09T06:57:39.381Z,95.30
2023-01-09T07:00:15.276Z,95.30
2023-01-09T07:02:44.945Z,95.40
2023-01-09T07:05:13.851Z,95.40
2023-01-09T07:07:42.678Z,95.40
2023-01-09T07:10:12.376Z,95.30
2023-01-09T07:12:40.645Z,95.30
2023-01-09T07:15:09.927Z,95.30
2023-01-09T07:17:38.320Z,95.30
2023-01-09T07:20:10.638Z,95.30
2023-01-09T07:22:38.877Z,95.30
2023-01-09T07:25:07.705Z,95.30
2023-01-09T07:27:35.965Z,95.30
2023-01-09T07:30:04.975Z,95.30
2023-01-09T07:32:33.534Z,95.30
2023-01-09T07:35:01.790Z,95.40
2023-01-09T07:37:31.719Z,95.40
2023-01-09T07:40:00.016Z,95.30
2023-01-09T07:42:28.380Z,95.20
2023-01-09T07:44:56.724Z,95.20
2023-01-09T07:47:25.030Z,95.20
2023-01-09T07:49:55.401Z,95.20
2023-01-09T07:52:23.735Z,95.30
2023-01-09T07:54:53.404Z,95.30
2023-01-09T07:57:21.707Z,95.30
2023-01-09T07:59:49.974Z,95.20
2023-01-09T08:02:18.943Z,95.20
2023-01-09T08:04:47.321Z,95.20
2023-01-09T08:07:15.680Z,95.10
2023-01-09T08:09:43.993Z,95.10
2023-01-09T08:12:13.722Z,95.30
2023-01-09T08:14:42.007Z,95.10
2023-01-09T08:17:11.781Z,95.00
2023-01-09T08:19:40.261Z,95.00
2023-01-09T08:22:08.492Z,95.00
2023-01-09T08:24:36.947Z,95.00
2023-01-09T08:27:05.295Z,95.00
2023-01-09T08:29:34.985Z,95.00
2023-01-09T08:32:03.242Z,95.00
2023-01-09T08:34:32.404Z,95.00
2023-01-09T08:37:00.722Z,94.90
2023-01-09T08:39:29.069Z,94.90
2023-01-09T08:42:14.804Z,94.90
2023-01-09T08:45:01.889Z,94.90
2023-01-09T08:47:33.494Z,94.80
2023-01-09T08:50:02.278Z,94.70
2023-01-09T08:52:30.764Z,94.60
2023-01-09T08:54:59.092Z,94.60
2023-01-09T08:57:27.452Z,94.70
2023-01-09T08:59:57.153Z,94.70
2023-01-09T09:02:25.427Z,94.70
2023-01-09T09:04:54.001Z,94.60
2023-01-09T09:07:26.708Z,94.50
2023-01-09T09:09:55.375Z,94.60
2023-01-09T09:12:24.287Z,94.70
2023-01-09T09:15:09.594Z,94.80
2023-01-09T09:17:40.287Z,94.80
2023-01-09T09:20:10.218Z,94.80
2023-01-09T09:22:40.029Z,94.90
2023-01-09T09:25:08.681Z,94.90
2023-01-09T09:27:37.850Z,94.80
2023-01-09T09:30:07.250Z,94.70
2023-01-09T09:32:35.937Z,94.50
2023-01-09T09:35:06.302Z,94.40
2023-01-09T09:37:34.894Z,94.50
2023-01-09T09:40:13.258Z,94.50
2023-01-09T09:43:19.614Z,94.50
2023-01-09T09:45:58.899Z,94.40
2023-01-09T09:48:36.371Z,94.20
2023-01-09T09:51:24.205Z,94.30
2023-01-09T09:53:57.286Z,94.30
2023-01-09T09:56:25.589Z,94.30
2023-01-09T09:59:04.940Z,94.40
2023-01-09T10:01:40.193Z,94.40
2023-01-09T10:04:14.256Z,94.30
2023-01-09T10:06:45.853Z,94.20
2023-01-09T10:09:25.364Z,94.30
2023-01-09T10:12:04.082Z,94.30
2023-01-09T10:14:33.155Z,94.40
2023-01-09T10:17:22.111Z,94.10
2023-01-09T10:20:24.027Z,94.00
2023-01-09T10:23:02.447Z,93.60
2023-01-09T10:25:42.543Z,93.60
2023-01-09T10:28:28.729Z,93.50
2023-01-09T10:31:02.604Z,93.50
2023-01-09T10:33:51.360Z,93.50
2023-01-09T10:36:56.574Z,93.30
2023-01-09T10:39:32.551Z,93.30
2023-01-09T10:42:11.312Z,93.20
2023-01-09T10:44:48.381Z,93.00
2023-01-09T10:47:27.087Z,93.00
2023-01-09T10:49:57.358Z,92.90
2023-01-09T10:52:34.739Z,92.70
2023-01-09T10:55:17.161Z,92.50
2023-01-09T10:57:47.267Z,92.20
2023-01-09T11:00:21.560Z,92.20
2023-01-09T11:02:52.423Z,92.00
2023-01-09T11:05:23.299Z,91.70
2023-01-09T11:07:56.757Z,91.80
2023-01-09T11:10:52.616Z,91.80
2023-01-09T11:13:22.670Z,91.60
2023-01-09T11:16:07.625Z,91.00
2023-01-09T11:18:39.333Z,90.70
2023-01-09T11:21:40.958Z,90.40
2023-01-09T11:24:31.472Z,90.40
2023-01-09T11:27:25.013Z,90.30
2023-01-09T11:30:24.133Z,90.30
2023-01-09T11:32:52.618Z,90.30
2023-01-09T11:35:28.341Z,90.20
2023-01-09T11:38:08.185Z,90.30
2023-01-09T11:40:55.339Z,90.20
2023-01-09T11:43:32.834Z,90.00
2023-01-09T11:46:04.006Z,90.00
2023-01-09T11:48:41.631Z,89.80
2023-01-09T11:51:21.787Z,90.00
2023-01-09T11:54:26.399Z,89.80
2023-01-09T11:56:54.911Z,89.90
2023-01-09T11:59:28.669Z,90.10
2023-01-09T12:02:37.755Z,90.00
2023-01-09T12:05:18.673Z,89.50
2023-01-09T12:08:17.398Z,90.00
2023-01-09T12:11:11.946Z,90.00
2023-01-09T12:14:04.540Z,90.10
2023-01-09T12:16:39.346Z,90.10
2023-01-09T12:19:23.881Z,90.10
2023-01-09T12:22:03.558Z,90.20
2023-01-09T12:24:54.411Z,90.10
2023-01-09T12:27:35.131Z,90.10
2023-01-09T12:30:20.765Z,90.10
2023-01-09T12:33:07.349Z,90.00
2023-01-09T12:35:42.232Z,90.10
2023-01-09T12:38:30.387Z,89.80
2023-01-09T12:41:34.400Z,89.70
2023-01-09T12:44:34.341Z,89.70
2023-01-09T12:47:33.199Z,89.40
2023-01-09T12:50:08.741Z,89.50
2023-01-09T12:52:41.783Z,89.00
2023-01-09T12:55:19.145Z,88.90
2023-01-09T12:57:52.071Z,88.80
2023-01-09T13:00:24.722Z,88.60
2023-01-09T13:03:07.197Z,88.40
2023-01-09T13:05:46.572Z,88.80
2023-01-09T13:08:19.419Z,88.70
2023-01-09T13:10:49.926Z,88.00
2023-01-09T13:13:23.814Z,89.00
2023-01-09T13:15:56.631Z,89.80
2023-01-09T13:18:31.265Z,89.90
2023-01-09T13:21:01.491Z,90.10
2023-01-09T13:23:43.156Z,90.30
2023-01-09T13:26:16.843Z,88.80
2023-01-09T13:28:47.954Z,87.90
2023-01-09T13:32:05.813Z,87.20
2023-01-09T13:34:37.330Z,85.60
2023-01-09T13:37:17.330Z,82.90
2023-01-09T13:39:56.874Z,81.30
2023-01-09T13:42:39.301Z,78.20
2023-01-09T13:45:12.283Z,75.20
2023-01-09T13:47:40.687Z,75.40
2023-01-09T13:50:25.027Z,72.30
2023-01-09T13:52:54.943Z,71.60
2023-01-09T13:55:36.128Z,71.60
2023-01-09T13:58:23.604Z,65.60
2023-01-09T14:00:57.650Z,63.60
2023-01-09T14:03:31.527Z,64.50
2023-01-09T14:06:20.384Z,65.50
2023-01-09T14:09:10.306Z,66.50
2023-01-09T14:11:38.888Z,67.10
2023-01-09T14:14:19.324Z,68.80
2023-01-09T14:16:47.931Z,69.40
2023-01-09T14:19:41.259Z,70.50
2023-01-09T14:22:25.454Z,71.00
2023-01-09T14:24:56.839Z,72.30
2023-01-09T14:28:08.517Z,72.30
2023-01-09T14:30:39.007Z,73.10
2023-01-09T14:33:27.883Z,73.80
2023-01-09T14:36:06.483Z,74.70
2023-01-09T14:38:52.046Z,75.30
2023-01-09T14:41:54.154Z,76.60
2023-01-09T14:44:35.234Z,77.30
2023-01-09T14:47:12.048Z,78.50
2023-01-09T14:49:53.378Z,78.80
2023-01-09T14:52:27.615Z,79.40
2023-01-09T14:55:00.813Z,79.70
2023-01-09T14:57:31.926Z,80.30
2023-01-09T15:00:01.689Z,81.00
2023-01-09T15:02:32.882Z,81.30
2023-01-09T15:05:06.092Z,81.60
2023-01-09T15:07:40.611Z,82.00
2023-01-09T15:10:16.178Z,82.60
2023-01-09T15:12:47.862Z,83.50
2023-01-09T15:15:18.063Z,83.90
2023-01-09T15:17:51.385Z,84.30
2023-01-09T15:20:25.005Z,84.40
2023-01-09T15:22:55.346Z,84.50
2023-01-09T15:25:37.731Z,85.30
2023-01-09T15:28:25.338Z,85.70
2023-01-09T15:31:01.905Z,86.30
2023-01-09T15:33:30.970Z,86.50
2023-01-09T15:36:02.796Z,86.40
2023-01-09T15:38:36.053Z,86.30
2023-01-09T15:41:10.830Z,86.50
2023-01-09T15:43:43.417Z,86.80
2023-01-09T15:46:13.132Z,87.00
2023-01-09T15:48:41.860Z,87.30
2023-01-09T15:51:13.597Z,88.20
2023-01-09T15:53:42.899Z,88.90
2023-01-09T15:56:20.727Z,89.50
2023-01-09T15:58:51.558Z,90.30
2023-01-09T16:01:29.969Z,90.30
2023-01-09T16:04:04.900Z,91.00
2023-01-09T16:06:36.373Z,91.30
2023-01-09T16:09:06.072Z,91.30
2023-01-09T16:11:37.517Z,91.50
2023-01-09T16:14:15.739Z,91.90
2023-01-09T16:16:44.321Z,92.20
2023-01-09T16:19:31.796Z,92.20
2023-01-09T16:22:01.939Z,92.60
2023-01-09T16:24:40.341Z,92.80
2023-01-09T16:27:23.917Z,93.30
2023-01-09T16:29:57.920Z,93.80
2023-01-09T16:32:29.709Z,93.90
2023-01-09T16:34:59.945Z,94.00
2023-01-09T16:37:29.498Z,94.10
2023-01-09T16:40:25.738Z,94.30
2023-01-09T16:43:01.957Z,94.40
2023-01-09T16:45:34.344Z,94.80
2023-01-09T16:48:03.301Z,94.60
2023-01-09T16:50:36.893Z,94.90
2023-01-09T16:53:15.723Z,94.90
2023-01-09T16:55:44.663Z,94.80
2023-01-09T16:58:21.134Z,94.70
2023-01-09T17:00:56.636Z,94.70
2023-01-09T17:03:25.813Z,94.90
2023-01-09T17:06:00.034Z,94.80
2023-01-09T17:08:30.626Z,94.80
2023-01-09T17:10:59.326Z,94.80
2023-01-09T17:13:28.424Z,94.80
2023-01-09T17:15:59.917Z,94.70
2023-01-09T17:18:29.747Z,94.60
2023-01-09T17:21:01.490Z,94.70
2023-01-09T17:23:34.491Z,94.60
2023-01-09T17:26:21.897Z,94.60
2023-01-09T17:28:52.189Z,94.50
2023-01-09T17:31:21.953Z,94.30
2023-01-09T17:33:50.719Z,94.30
2023-01-09T17:36:42.271Z,94.50
2023-01-09T17:39:26.046Z,94.50
2023-01-09T17:42:22.912Z,94.30
2023-01-09T17:44:56.771Z,94.20
2023-01-09T17:47:48.187Z,94.10
2023-01-09T17:50:20.722Z,94.00
2023-01-09T17:52:49.353Z,93.90
2023-01-09T17:55:20.051Z,94.00
2023-01-09T17:57:48.443Z,94.10
2023-01-09T18:00:26.223Z,94.00
2023-01-09T18:02:56.631Z,93.80
2023-01-09T18:05:27.721Z,93.90
2023-01-09T18:07:56.181Z,93.90
2023-01-09T18:10:27.301Z,94.00
2023-01-09T18:12:56.839Z,93.90
2023-01-09T18:15:25.565Z,93.80
2023-01-09T18:17:55.683Z,93.70
2023-01-09T18:20:25.077Z,93.70
2023-01-09T18:22:53.529Z,93.70
2023-01-09T18:25:21.966Z,93.60
2023-01-09T18:27:50.295Z,93.60
2023-01-09T18:30:19.187Z,93.60
2023-01-09T18:32:47.596Z,93.60
2023-01-09T18:35:17.435Z,93.60
2023-01-09T18:37:45.878Z,93.50
2023-01-09T18:40:14.604Z,93.80
2023-01-09T18:42:43.696Z,93.80
2023-01-09T18:45:12.441Z,93.70
2023-01-09T18:47:40.820Z,93.60
2023-01-09T18:50:12.153Z,93.60
2023-01-09T18:52:41.848Z,93.50
2023-01-09T18:55:10.954Z,93.50
2023-01-09T18:57:39.374Z,93.50
2023-01-09T19:00:09.389Z,93.40
2023-01-09T19:02:38.037Z,93.50
2023-01-09T19:05:06.890Z,93.40
2023-01-09T19:07:35.120Z,93.40
2023-01-09T19:10:05.150Z,93.30
2023-01-09T19:12:33.405Z,93.30
2023-01-09T19:15:02.022Z,93.30
2023-01-09T19:17:30.733Z,93.30
2023-01-09T19:19:59.335Z,93.30
2023-01-09T19:22:30.326Z,93.20
2023-01-09T19:24:58.694Z,93.20
2023-01-09T19:27:30.220Z,93.20
2023-01-09T19:30:04.471Z,93.10
2023-01-09T19:32:35.760Z,93.00
2023-01-09T19:35:13.000Z,93.10
2023-01-09T19:37:41.442Z,93.20
2023-01-09T19:40:12.269Z,93.20
2023-01-09T19:42:42.191Z,93.20
2023-01-09T19:45:19.843Z,93.20
2023-01-09T19:47:49.437Z,93.20
2023-01-09T19:50:19.058Z,93.20
2023-01-09T19:52:50.986Z,93.20
2023-01-09T19:55:19.578Z,93.20
2023-01-09T19:57:49.526Z,93.20
2023-01-09T20:00:18.464Z,93.10
2023-01-09T20:02:50.598Z,93.20
2023-01-09T20:05:21.764Z,93.20
2023-01-09T20:08:06.374Z,93.10
2023-01-09T20:10:40.990Z,93.10
2023-01-09T20:13:15.202Z,93.10
2023-01-09T20:15:44.731Z,93.20
2023-01-09T20:18:13.011Z,93.30
2023-01-09T20:20:43.376Z,93.30
2023-01-09T20:23:15.579Z,93.30
2023-01-09T20:25:45.627Z,93.30
2023-01-09T20:28:16.742Z,93.30
2023-01-09T20:30:53.768Z,93.20
2023-01-09T20:33:29.094Z,93.20
2023-01-09T20:36:12.359Z,93.10
2023-01-09T20:39:08.638Z,93.10
2023-01-09T20:41:40.471Z,93.10
2023-01-09T20:44:15.949Z,93.00
2023-01-09T20:46:50.756Z,92.90
2023-01-09T20:49:22.354Z,92.90
2023-01-09T20:51:52.830Z,92.90
2023-01-09T20:54:22.391Z,92.90
2023-01-09T20:56:51.118Z,92.90
2023-01-09T20:59:22.243Z,92.90
2023-01-09T21:01:51.170Z,92.90
2023-01-09T21:04:19.651Z,92.90
2023-01-09T21:06:50.057Z,92.90
2023-01-09T21:09:18.720Z,93.00
2023-01-09T21:11:47.115Z,93.00
2023-01-09T21:14:15.503Z,93.20
2023-01-09T21:16:53.712Z,93.10
2023-01-09T21:19:23.318Z,93.20
2023-01-09T21:21:53.230Z,93.50
2023-01-09T21:24:22.060Z,93.40
2023-01-09T21:26:50.351Z,93.30
2023-01-09T21:29:18.694Z,93.30
2023-01-09T21:31:48.487Z,93.30
2023-01-09T21:34:20.640Z,93.20
2023-01-09T21:36:49.120Z,93.10
2023-01-09T21:39:18.296Z,93.30
2023-01-09T21:42:04.106Z,93.30
2023-01-09T21:44:49.516Z,93.20
2023-01-09T21:47:19.601Z,93.20
2023-01-09T21:49:47.926Z,93.10
2023-01-09T21:52:18.318Z,93.00
2023-01-09T21:54:46.732Z,93.00
2023-01-09T21:57:15.094Z,92.90
2023-01-09T21:59:43.410Z,92.90
2023-01-09T22:02:13.306Z,92.80
2023-01-09T22:04:43.262Z,92.80
2023-01-09T22:07:11.655Z,92.80
2023-01-09T22:09:40.039Z,92.80
2023-01-09T22:12:10.477Z,92.80
2023-01-09T22:14:39.660Z,92.80
2023-01-09T22:17:08.128Z,92.70
2023-01-09T22:19:36.592Z,92.70
2023-01-09T22:22:08.508Z,92.80
2023-01-09T22:24:36.965Z,92.90
2023-01-09T22:27:05.642Z,93.00
2023-01-09T22:29:34.167Z,93.20
2023-01-09T22:32:02.596Z,93.20
2023-01-09T22:34:31.122Z,93.20
2023-01-09T22:36:59.506Z,93.20
2023-01-09T22:39:29.329Z,93.30
2023-01-09T22:41:59.197Z,93.40
2023-01-09T22:44:27.474Z,93.40
2023-01-09T22:46:56.614Z,93.60
2023-01-09T22:49:26.428Z,93.70
2023-01-09T22:51:56.659Z,93.80
2023-01-09T22:54:25.067Z,93.90
2023-01-09T22:56:54.749Z,93.80
2023-01-09T22:59:23.028Z,93.80
2023-01-09T23:01:52.399Z,94.10
2023-01-09T23:04:20.825Z,94.40
2023-01-09T23:06:49.099Z,94.40
2023-01-09T23:09:17.438Z,94.40
2023-01-09T23:12:03.575Z,94.50
2023-01-09T23:14:36.021Z,94.50
2023-01-09T23:17:04.468Z,94.50
2023-01-09T23:19:35.349Z,94.50
2023-01-09T23:22:04.286Z,94.60
2023-01-09T23:24:33.531Z,94.80
2023-01-09T23:27:02.063Z,95.00
2023-01-09T23:29:30.502Z,95.00
2023-01-09T23:32:00.411Z,95.10
2023-01-09T23:34:29.040Z,95.10
2023-01-09T23:36:57.777Z,95.30
2023-01-09T23:39:26.209Z,95.50
2023-01-09T23:42:12.217Z,95.70
2023-01-09T23:44:40.681Z,95.60
2023-01-09T23:47:10.501Z,95.70
2023-01-09T23:49:38.965Z,95.80
2023-01-09T23:52:08.725Z,95.80
2023-01-09T23:54:37.455Z,95.80
2023-01-09T23:57:05.929Z,95.70
2023-01-09T23:59:34.328Z,95.70
